Time;durP1;ratioP1;P1;durP2;ratioP2;P2;SDS_P1;SDS_P2;PMS_P1;PMS_P2;Temp;Humidity;BMP_temperature;BMP_pressure;BME280_temperature;BME280_humidity;BME280_pressure;Samples;Min_cycle;Max_cycle;Signal;HPM_P1;HPM_P2
2022/01/04 00:00:53;;;;;;;16.23;7.43;;;;;;;-4.91;58.08;97503.72;5045107;28;20056;-68
2022/01/04 00:03:21;;;;;;;17.10;7.53;;;;;;;-4.90;57.89;97503.50;5045258;28;20064;-67
2022/01/04 00:05:49;;;;;;;20.03;7.10;;;;;;;-4.97;58.34;97510.00;5034623;28;20506;-68
2022/01/04 00:08:15;;;;;;;15.73;7.28;;;;;;;-5.04;58.34;97510.88;5032570;28;20052;-68
2022/01/04 00:10:42;;;;;;;17.97;7.67;;;;;;;-4.97;58.26;97510.78;5062271;28;20048;-68
2022/01/04 00:13:22;;;;;;;18.38;8.10;;;;;;;-5.04;58.21;97510.09;5044261;28;20044;-69
2022/01/04 00:15:49;;;;;;;18.33;7.87;;;;;;;-4.99;57.88;97505.69;5057111;28;20038;-69
2022/01/04 00:18:17;;;;;;;17.47;7.10;;;;;;;-4.90;58.40;97518.69;5041545;28;20095;-66
2022/01/04 00:20:45;;;;;;;18.90;8.13;;;;;;;-4.98;58.35;97517.16;5035932;28;20490;-66
2022/01/04 00:23:13;;;;;;;17.57;7.73;;;;;;;-4.91;58.32;97520.53;5050922;28;20289;-68
2022/01/04 00:25:39;;;;;;;18.47;7.87;;;;;;;-4.92;58.39;97523.44;5045549;28;20335;-67
2022/01/04 00:28:07;;;;;;;17.97;7.57;;;;;;;-4.89;58.41;97522.97;5043958;28;20045;-68
2022/01/04 00:30:33;;;;;;;14.07;6.45;;;;;;;-4.90;58.42;97529.34;5050498;28;20395;-69
2022/01/04 00:32:59;;;;;;;15.80;6.87;;;;;;;-4.96;58.24;97520.41;5044025;28;20041;-69
2022/01/04 00:35:26;;;;;;;18.67;7.95;;;;;;;-4.97;58.75;97526.78;5037366;28;20044;-67
2022/01/04 00:37:53;;;;;;;20.23;7.67;;;;;;;-4.94;58.41;97520.97;5036208;28;20046;-68
2022/01/04 00:40:20;;;;;;;16.77;7.67;;;;;;;-4.90;58.34;97518.69;5032666;28;20050;-67
2022/01/04 00:42:47;;;;;;;19.93;7.93;;;;;;;-4.92;58.29;97526.09;5038550;28;20099;-67
2022/01/04 00:45:13;;;;;;;16.80;7.70;;;;;;;-4.97;58.61;97518.78;5029336;28;20041;-66
2022/01/04 00:49:09;;;;;;;21.27;7.40;;;;;;;-4.97;58.78;97528.66;5046479;28;20056;-67
2022/01/04 00:50:34;;;;;;;15.87;7.40;;;;;;;-5.00;58.93;97530.72;5040362;28;20067;-67
2022/01/04 00:53:01;;;;;;;20.33;8.13;;;;;;;-4.97;58.83;97537.44;5028476;28;20429;-67
2022/01/04 00:55:29;;;;;;;18.67;7.47;;;;;;;-4.96;58.51;97541.72;5040122;28;20100;-67
2022/01/04 00:57:59;;;;;;;17.60;7.53;;;;;;;-4.96;58.72;97547.06;5047174;28;20052;-67
2022/01/04 01:00:26;;;;;;;20.30;7.90;;;;;;;-4.97;58.47;97549.97;5040203;28;20061;-67
2022/01/04 01:02:53;;;;;;;18.33;7.60;;;;;;;-4.99;58.61;97548.34;5044632;28;20057;-67
2022/01/04 01:05:19;;;;;;;17.97;7.43;;;;;;;-4.94;58.60;97547.63;5038471;28;20041;-67
2022/01/04 01:07:46;;;;;;;21.23;8.07;;;;;;;-4.94;58.69;97538.84;5041737;28;20539;-66
2022/01/04 01:13:01;;;;;;;22.00;9.63;;;;;;;-5.04;58.63;97542.88;5031099;28;20041;-67
2022/01/04 01:15:27;;;;;;;;;;;;;;;-5.06;58.88;97549.50;5032482;28;20057;-66
2022/01/04 01:17:53;;;;;;;28.47;12.03;;;;;;;-5.06;58.91;97536.97;5036501;28;19925;-67
2022/01/04 01:20:19;;;;;;;28.97;12.70;;;;;;;-5.00;58.46;97546.69;5036015;28;20053;-67
2022/01/04 01:22:45;;;;;;;30.00;12.57;;;;;;;-4.97;58.81;97549.97;5036521;28;20053;-68
2022/01/04 01:25:14;;;;;;;25.67;10.80;;;;;;;-4.94;58.72;97546.84;5046819;28;20111;-68
2022/01/04 01:27:41;;;;;;;21.43;9.40;;;;;;;-5.04;58.67;97540.22;5042925;28;20055;-68
2022/01/04 01:30:10;;;;;;;21.70;9.60;;;;;;;-5.05;58.73;97546.59;5047748;28;20420;-67
2022/01/04 01:32:37;;;;;;;22.07;9.23;;;;;;;-5.07;58.92;97551.34;5026720;28;20042;-66
2022/01/04 01:35:04;;;;;;;18.43;8.50;;;;;;;-5.09;59.18;97545.44;5040070;28;20046;-67
2022/01/04 01:37:31;;;;;;;19.98;9.15;;;;;;;-5.01;58.75;97553.06;5032282;28;20120;-67
2022/01/04 01:39:57;;;;;;;24.15;9.00;;;;;;;-4.99;58.67;97560.84;5031462;28;20045;-68
2022/01/04 01:42:23;;;;;;;20.57;8.97;;;;;;;-4.97;58.51;97555.31;5034439;28;20512;-67
2022/01/04 01:44:51;;;;;;;22.87;9.30;;;;;;;-5.01;58.80;97549.63;5041301;28;20053;-67
2022/01/04 01:47:18;;;;;;;18.95;9.35;;;;;;;-5.06;58.69;97555.63;5051055;28;20037;-67
2022/01/04 01:49:45;;;;;;;18.67;9.43;;;;;;;-5.06;58.77;97558.28;5041700;28;20056;-66
2022/01/04 01:52:11;;;;;;;21.90;10.30;;;;;;;-5.08;58.70;97554.22;5037260;28;20056;-67
2022/01/04 01:54:39;;;;;;;20.37;9.80;;;;;;;-5.06;58.62;97550.28;5044371;28;20053;-67
2022/01/04 01:57:05;;;;;;;18.73;9.27;;;;;;;-4.97;58.67;97549.97;5049518;28;20064;-67
2022/01/04 01:59:31;;;;;;;23.30;10.07;;;;;;;-4.93;58.66;97554.59;5035988;28;20131;-66
2022/01/04 02:01:57;;;;;;;22.50;9.40;;;;;;;-4.91;58.31;97551.72;5040164;28;20521;-66
2022/01/04 02:04:27;;;;;;;21.30;9.70;;;;;;;-4.99;58.35;97550.19;5038921;28;20453;-67
2022/01/04 02:06:53;;;;;;;19.90;9.38;;;;;;;-4.98;58.47;97557.16;5049995;28;20103;-67
2022/01/04 02:09:20;;;;;;;20.20;9.63;;;;;;;-4.98;58.54;97551.81;5040755;28;20061;-68
2022/01/04 02:11:46;;;;;;;22.40;9.70;;;;;;;-4.98;58.50;97546.47;5057427;28;20045;-67
2022/01/04 02:14:12;;;;;;;19.97;9.30;;;;;;;-5.06;58.37;97546.84;5029371;28;20140;-67
2022/01/04 02:16:39;;;;;;;22.27;9.50;;;;;;;-5.02;58.43;97554.13;5050171;28;20044;-68
2022/01/04 02:19:06;;;;;;;22.87;9.90;;;;;;;-5.04;58.51;97564.19;5041447;28;20045;-67
2022/01/04 02:21:35;;;;;;;20.67;9.40;;;;;;;-5.01;58.61;97555.75;5039762;28;20143;-68
2022/01/04 02:24:03;;;;;;;19.43;8.57;;;;;;;-4.98;58.31;97551.81;5043794;28;20045;-68
2022/01/04 02:26:31;;;;;;;21.02;9.65;;;;;;;-5.09;58.22;97556.09;5044740;28;20049;-67
2022/01/04 02:28:59;;;;;;;22.87;10.23;;;;;;;-5.07;58.58;97563.84;5041463;28;20044;-68
2022/01/04 02:31:25;;;;;;;22.50;9.75;;;;;;;-5.12;58.17;97548.56;5040182;28;20056;-67
2022/01/04 02:33:51;;;;;;;22.10;9.97;;;;;;;-5.00;58.22;97562.69;5043407;28;20133;-67
2022/01/04 02:36:17;;;;;;;23.50;9.80;;;;;;;-5.00;58.27;97575.22;5043798;28;20576;-69
2022/01/04 02:38:45;;;;;;;24.57;10.30;;;;;;;-5.00;58.04;97565.38;5038150;28;20072;-66
2022/01/04 02:41:11;;;;;;;22.38;10.75;;;;;;;-5.04;58.32;97569.53;5043668;28;20123;-65
2022/01/04 02:43:37;;;;;;;29.93;13.73;;;;;;;-5.05;58.21;97559.91;5041855;28;20493;-67
2022/01/04 02:46:03;;;;;;;36.77;16.17;;;;;;;-4.94;58.38;97579.63;5017168;28;20434;-67
2022/01/04 02:48:29;;;;;;;38.27;16.37;;;;;;;-5.00;58.17;97578.69;5033182;28;20422;-68
2022/01/04 02:50:56;;;;;;;35.60;14.53;;;;;;;-4.99;58.17;97572.34;5043093;28;20048;-68
2022/01/04 02:53:22;;;;;;;28.00;12.77;;;;;;;-4.98;58.22;97570.47;5043585;28;20049;-67
2022/01/04 02:55:50;;;;;;;31.77;13.07;;;;;;;-4.99;58.22;97571.53;5051460;28;20535;-67
2022/01/04 02:58:16;;;;;;;28.35;11.57;;;;;;;-5.06;58.34;97566.28;5058751;28;20099;-66
2022/01/04 03:00:42;;;;;;;26.10;11.80;;;;;;;-5.03;58.50;97570.34;5046865;28;20449;-67
2022/01/04 03:03:08;;;;;;;23.57;10.83;;;;;;;-5.03;58.53;97576.47;5045777;28;20049;-67
2022/01/04 03:05:37;;;;;;;24.93;11.23;;;;;;;-5.00;58.08;97585.88;5051683;28;20060;-67
2022/01/04 03:08:04;;;;;;;26.53;11.00;;;;;;;-5.05;58.29;97578.56;5046844;28;20440;-68
2022/01/04 03:10:30;;;;;;;26.57;11.07;;;;;;;-5.03;58.48;97591.69;5024078;28;20085;-67
2022/01/04 03:12:58;;;;;;;23.23;10.40;;;;;;;-5.08;58.15;97595.03;5041353;28;20045;-66
2022/01/04 03:15:24;;;;;;;28.63;11.37;;;;;;;-5.04;58.55;97596.19;5045683;28;20044;-67
2022/01/04 03:17:51;;;;;;;21.63;9.97;;;;;;;-5.00;58.29;97591.22;5042160;28;20095;-67
2022/01/04 03:20:17;;;;;;;24.60;10.23;;;;;;;-5.02;58.17;97591.44;5049080;28;20314;-67
2022/01/04 03:22:43;;;;;;;26.23;10.47;;;;;;;-4.96;58.23;97599.59;5048529;28;20075;-67
2022/01/04 03:25:09;;;;;;;21.93;9.87;;;;;;;-4.95;58.34;97598.53;5043904;28;20132;-67
2022/01/04 03:27:36;;;;;;;24.80;11.47;;;;;;;-4.93;58.36;97609.78;5048191;28;20102;-68
2022/01/04 03:30:05;;;;;;;26.63;11.27;;;;;;;-4.92;58.00;97611.41;5036132;28;20517;-67
2022/01/04 03:32:33;;;;;;;25.43;11.17;;;;;;;-4.95;58.06;97603.88;5049783;28;20076;-68
2022/01/04 03:34:59;;;;;;;27.35;10.52;;;;;;;-4.91;57.98;97602.38;5037350;28;20044;-68
2022/01/04 03:37:26;;;;;;;27.00;10.83;;;;;;;-4.86;57.92;97615.81;5052209;28;20485;-67
2022/01/04 03:39:52;;;;;;;28.80;11.05;;;;;;;-4.88;57.91;97609.91;5039027;28;20052;-67
2022/01/04 03:42:22;;;;;;;28.10;11.63;;;;;;;-4.89;58.09;97616.28;5050345;28;20055;-67
2022/01/04 03:44:51;;;;;;;31.00;11.67;;;;;;;-4.89;57.91;97619.78;5049284;28;20076;-67
2022/01/04 03:47:19;;;;;;;25.17;11.10;;;;;;;-4.86;58.08;97619.31;5046776;28;20045;-67
2022/01/04 03:49:45;;;;;;;26.13;11.00;;;;;;;-4.85;58.05;97617.44;5045787;28;20584;-66
2022/01/04 03:52:14;;;;;;;25.10;11.37;;;;;;;-4.82;58.05;97625.00;5051277;28;20140;-68
2022/01/04 03:54:40;;;;;;;28.07;11.87;;;;;;;-4.81;57.81;97629.31;5039945;28;20053;-68
2022/01/04 03:57:07;;;;;;;28.00;11.03;;;;;;;-4.82;57.84;97616.19;5037391;28;20038;-68
2022/01/04 03:59:37;;;;;;;26.03;11.60;;;;;;;-4.81;57.81;97631.13;5048403;28;20107;-67
2022/01/04 04:02:03;;;;;;;34.37;12.63;;;;;;;-4.81;57.82;97629.31;5046987;28;20157;-68
2022/01/04 04:04:31;;;;;;;25.87;11.23;;;;;;;-4.85;58.12;97628.09;5039110;28;20052;-67
2022/01/04 04:07:00;;;;;;;28.02;11.30;;;;;;;-4.90;57.99;97625.31;5038203;28;20153;-67
2022/01/04 04:09:34;;;;;;;27.97;12.10;;;;;;;-4.90;58.14;97628.00;5034927;28;20102;-67
2022/01/04 04:12:00;;;;;;;28.67;10.70;;;;;;;-4.89;58.19;97624.28;5047973;28;20098;-67
2022/01/04 04:14:27;;;;;;;30.30;11.07;;;;;;;-4.85;58.13;97633.44;5044781;28;20123;-67
2022/01/04 04:16:57;;;;;;;21.37;9.47;;;;;;;-4.90;58.09;97626.16;5049364;28;20567;-67
2022/01/04 04:19:22;;;;;;;21.90;9.87;;;;;;;-4.81;58.10;97636.47;5035839;28;20045;-67
2022/01/04 04:21:50;;;;;;;23.60;9.83;;;;;;;-4.79;57.94;97634.38;5030081;28;20103;-67
2022/01/04 04:24:16;;;;;;;;;;;;;;;-4.81;57.83;97634.63;5038842;28;20041;-67
2022/01/04 04:26:43;;;;;;;27.37;9.93;;;;;;;-4.80;57.77;97630.94;5060312;28;19924;-67
2022/01/04 04:29:09;;;;;;;22.58;9.25;;;;;;;-4.81;57.92;97641.81;5033804;28;20045;-68
2022/01/04 04:31:36;;;;;;;25.27;9.47;;;;;;;-4.85;57.95;97631.59;5045162;28;20045;-68
2022/01/04 04:34:02;;;;;;;21.83;9.20;;;;;;;-4.87;58.13;97632.84;5030837;28;20061;-68
2022/01/04 04:36:30;;;;;;;17.97;8.83;;;;;;;-4.87;58.06;97639.03;5048454;28;20311;-68
2022/01/04 04:38:57;;;;;;;22.83;9.32;;;;;;;-4.88;58.02;97637.41;5036309;28;20131;-67
2022/01/04 04:41:23;;;;;;;21.20;9.30;;;;;;;-4.91;58.31;97643.19;5035055;28;20548;-66
2022/01/04 04:43:54;;;;;;;24.53;9.70;;;;;;;-4.97;58.33;97635.28;5045689;28;20072;-67
2022/01/04 04:46:20;;;;;;;21.63;9.30;;;;;;;-4.90;58.29;97638.66;5043790;28;20075;-68
2022/01/04 04:48:47;;;;;;;20.27;8.80;;;;;;;-5.02;58.30;97639.41;5033460;28;20095;-67
2022/01/04 04:51:13;;;;;;;19.63;8.73;;;;;;;-4.96;58.39;97639.56;5032491;28;20057;-67
2022/01/04 04:53:39;;;;;;;23.53;9.07;;;;;;;-4.96;58.39;97637.69;5049947;28;20099;-66
2022/01/04 04:56:07;;;;;;;24.17;8.87;;;;;;;-4.96;58.29;97644.91;5043323;28;20506;-66
2022/01/04 04:58:33;;;;;;;21.30;9.15;;;;;;;-4.93;58.18;97647.09;5041424;28;20049;-67
2022/01/04 05:00:59;;;;;;;22.80;8.47;;;;;;;-4.92;58.26;97648.72;5051154;28;20065;-69
2022/01/04 05:03:25;;;;;;;20.73;8.97;;;;;;;-4.97;58.13;97643.28;5035211;28;20083;-67
2022/01/04 05:05:51;;;;;;;22.10;9.30;;;;;;;-4.99;58.45;97651.50;5047933;28;20072;-67
2022/01/04 05:08:17;;;;;;;26.77;9.77;;;;;;;-5.04;58.39;97657.50;5044668;28;20517;-67
2022/01/04 05:10:44;;;;;;;21.13;8.90;;;;;;;-5.05;58.50;97655.88;5034468;28;20091;-67
2022/01/04 05:13:13;;;;;;;22.23;9.23;;;;;;;-5.15;58.46;97642.25;5043057;28;20059;-67
2022/01/04 05:15:39;;;;;;;25.55;9.73;;;;;;;-5.03;58.58;97666.31;5030198;28;20430;-68
2022/01/04 05:18:07;;;;;;;27.47;10.37;;;;;;;-5.08;58.80;97661.66;5042307;28;20047;-68
2022/01/04 05:20:34;;;;;;;21.77;9.83;;;;;;;-5.00;58.85;97663.19;5048875;28;20033;-68
2022/01/04 05:23:00;;;;;;;23.83;9.57;;;;;;;-5.02;58.71;97667.94;5046859;28;20045;-68
2022/01/04 05:25:26;;;;;;;24.43;9.83;;;;;;;-5.07;58.39;97670.44;5040398;28;20075;-69
2022/01/04 05:27:53;;;;;;;23.37;9.63;;;;;;;-5.12;58.78;97673.81;5046417;28;20053;-69
2022/01/04 05:30:21;;;;;;;21.63;9.73;;;;;;;-5.25;58.95;97655.34;5038236;28;20147;-69
2022/01/04 05:32:47;;;;;;;26.50;10.80;;;;;;;-5.08;58.73;97685.66;5043100;28;20103;-69
2022/01/04 05:35:13;;;;;;;28.37;9.53;;;;;;;-5.12;58.51;97677.28;5034128;28;20493;-69
2022/01/04 05:37:39;;;;;;;23.60;10.47;;;;;;;-5.18;58.83;97685.34;5034860;28;20159;-69
2022/01/04 05:40:06;;;;;;;23.37;9.77;;;;;;;-5.17;58.73;97682.47;5042230;28;20045;-68
2022/01/04 05:42:32;;;;;;;25.42;10.60;;;;;;;-5.17;58.95;97686.97;5062940;28;20053;-68
2022/01/04 05:44:58;;;;;;;25.87;10.67;;;;;;;-5.19;59.12;97675.75;5039322;28;20092;-68
2022/01/04 05:47:26;;;;;;;20.77;9.47;;;;;;;-5.18;58.72;97683.53;5029964;28;20073;-69
2022/01/04 05:49:53;;;;;;;;;;;;;;;-5.20;58.58;97684.78;5022717;28;20053;-68
2022/01/04 05:52:19;;;;;;;21.53;8.10;;;;;;;-5.27;58.57;97688.34;5031420;28;20385;-67
2022/01/04 05:54:46;;;;;;;22.23;9.47;;;;;;;-5.28;58.65;97684.06;5030543;28;20045;-67
2022/01/04 05:57:12;;;;;;;26.40;9.60;;;;;;;-5.36;59.06;97678.22;5042014;28;20052;-68
2022/01/04 05:59:38;;;;;;;20.73;8.80;;;;;;;-5.36;58.97;97686.22;5049168;28;20057;-68
2022/01/04 06:02:05;;;;;;;21.33;8.77;;;;;;;-5.42;59.13;97686.03;5026551;28;20515;-67
2022/01/04 06:04:33;;;;;;;23.87;8.83;;;;;;;-5.37;59.07;97688.03;5044582;28;20083;-68
2022/01/04 06:06:59;;;;;;;;;;;;;;;-5.42;58.85;97688.72;5031536;28;20319;-66
2022/01/04 06:09:29;;;;;;;28.90;8.63;;;;;;;-5.49;59.12;97695.16;5039492;28;19925;-67
2022/01/04 06:11:59;;;;;;;25.23;9.13;;;;;;;-5.46;58.97;97692.88;5033463;28;20045;-68
2022/01/04 06:17:11;;;;;;;27.60;10.00;;;;;;;-5.50;59.09;97706.84;5040623;28;20127;-68
2022/01/04 06:19:39;;;;;;;32.07;10.50;;;;;;;-5.50;59.17;97710.34;5028599;28;20041;-69
2022/01/04 06:22:06;;;;;;;23.60;9.97;;;;;;;-5.48;58.99;97712.75;5030067;28;20517;-70
2022/01/04 06:24:32;;;;;;;28.93;10.33;;;;;;;-5.61;59.43;97709.22;5040391;28;20056;-70
2022/01/04 06:26:59;;;;;;;27.03;10.83;;;;;;;-5.56;59.39;97709.38;5039196;28;20119;-70
2022/01/04 06:29:27;;;;;;;28.63;11.10;;;;;;;-5.55;59.17;97712.81;5034261;28;20426;-69
2022/01/04 06:31:53;;;;;;;;;;;;;;;-5.61;59.55;97716.38;5030923;28;20437;-71
2022/01/04 06:34:19;;;;;;;26.17;10.13;;;;;;;-5.54;59.02;97725.13;5045797;28;19924;-67
2022/01/04 06:36:47;;;;;;;25.77;10.80;;;;;;;-5.65;59.61;97725.84;5064132;28;20048;-70
2022/01/04 06:39:13;;;;;;;30.20;11.55;;;;;;;-5.61;59.28;97722.53;5034415;28;20457;-69
2022/01/04 06:41:40;;;;;;;29.03;11.20;;;;;;;-5.58;59.39;97730.09;5035234;28;20402;-69
2022/01/04 06:44:06;;;;;;;26.83;11.40;;;;;;;-5.64;59.13;97746.13;5040529;28;20068;-69
2022/01/04 06:46:33;;;;;;;29.67;10.88;;;;;;;-5.64;59.10;97730.94;5045273;28;20041;-70
2022/01/04 06:48:59;;;;;;;25.13;10.13;;;;;;;-5.61;59.23;97741.19;5062555;28;20140;-70
2022/01/04 06:51:25;;;;;;;25.77;9.83;;;;;;;-5.63;59.54;97751.22;5041382;28;20055;-70
2022/01/04 06:53:53;;;;;;;25.07;9.73;;;;;;;-5.69;59.50;97752.09;5045768;28;20430;-68
2022/01/04 06:56:19;;;;;;;26.48;9.63;;;;;;;-5.66;59.13;97754.31;5025456;28;20481;-69
2022/01/04 06:58:45;;;;;;;21.70;9.57;;;;;;;-5.64;59.21;97756.78;5045793;28;20037;-68
2022/01/04 07:01:11;;;;;;;22.67;9.80;;;;;;;-5.58;58.94;97762.03;5039070;28;20302;-69
2022/01/04 07:03:37;;;;;;;21.97;9.50;;;;;;;-5.66;59.15;97748.19;5039126;28;20114;-69
2022/01/04 07:06:03;;;;;;;28.37;9.80;;;;;;;-5.61;59.07;97751.84;5043684;28;20091;-69
2022/01/04 07:08:30;;;;;;;22.50;9.53;;;;;;;-5.73;59.19;97748.25;5028516;28;20057;-69
2022/01/04 07:10:58;;;;;;;22.90;9.57;;;;;;;-5.62;59.20;97762.69;5033243;28;20080;-70
2022/01/04 07:13:24;;;;;;;24.77;10.53;;;;;;;-5.63;59.25;97763.72;5016198;28;20049;-71
2022/01/04 07:15:51;;;;;;;25.47;10.37;;;;;;;-5.68;59.16;97775.03;5040079;28;20073;-69
2022/01/04 07:18:17;;;;;;;26.75;11.20;;;;;;;-5.70;58.95;97767.28;5041781;28;20395;-69
2022/01/04 07:20:43;;;;;;;26.93;11.60;;;;;;;-5.68;59.47;97776.91;5043723;28;20053;-70
2022/01/04 07:23:09;;;;;;;31.37;10.93;;;;;;;-5.56;59.10;97783.94;5046251;28;20060;-72
2022/01/04 07:25:36;;;;;;;28.73;12.03;;;;;;;-5.58;58.98;97783.34;5050891;28;20049;-71
2022/01/04 07:28:04;;;;;;;28.77;11.53;;;;;;;-5.56;59.23;97781.28;5046468;28;20145;-68
2022/01/04 07:30:30;;;;;;;39.67;13.27;;;;;;;-5.50;59.07;97776.09;5051289;28;20053;-69
2022/01/04 07:32:56;;;;;;;29.70;12.63;;;;;;;-5.49;58.84;97775.88;5043446;28;20046;-72
2022/01/04 07:35:22;;;;;;;34.27;12.90;;;;;;;-5.46;58.88;97783.44;5032240;28;20140;-75
2022/01/04 07:37:48;;;;;;;40.97;12.77;;;;;;;-5.44;58.88;97785.88;5034451;28;20132;-72
2022/01/04 07:40:15;;;;;;;31.93;13.23;;;;;;;-5.39;58.93;97788.69;5042872;28;21435;-72
2022/01/04 07:42:41;;;;;;;33.90;13.10;;;;;;;-5.38;58.72;97782.34;5044693;28;20045;-70
2022/01/04 07:45:09;;;;;;;34.30;12.93;;;;;;;-5.34;58.61;97788.84;5034920;28;20410;-71
2022/01/04 07:47:37;;;;;;;36.13;11.90;;;;;;;-5.38;58.84;97781.53;5027720;28;20041;-70
2022/01/04 07:50:03;;;;;;;;;;;;;;;-5.42;58.96;97789.94;5036151;28;20139;-71
2022/01/04 07:52:30;;;;;;;32.67;11.13;;;;;;;-5.43;58.91;97793.66;5036393;28;20304;-72
2022/01/04 07:55:00;;;;;;;30.97;12.87;;;;;;;-5.32;58.65;97794.75;5032530;28;20055;-72
2022/01/04 07:57:26;;;;;;;38.63;12.97;;;;;;;-5.38;58.85;97794.84;5036142;28;20049;-72
2022/01/04 07:59:53;;;;;;;39.27;13.13;;;;;;;-5.39;58.68;97794.03;5044625;28;20083;-72
2022/01/04 08:02:21;;;;;;;32.93;12.93;;;;;;;-5.51;58.97;97793.94;5032898;28;20577;-71
2022/01/04 08:04:50;;;;;;;34.53;12.60;;;;;;;-5.37;58.67;97802.59;5040434;28;20147;-73
2022/01/04 08:07:16;;;;;;;36.03;12.97;;;;;;;-5.36;58.98;97798.91;5054223;28;20045;-73
2022/01/04 08:09:42;;;;;;;31.90;13.03;;;;;;;-5.34;58.79;97801.38;5064392;28;20048;-73
2022/01/04 08:12:09;;;;;;;34.87;13.73;;;;;;;-5.37;58.89;97805.28;5050093;28;20041;-72
2022/01/04 08:14:38;;;;;;;32.55;13.70;;;;;;;-5.50;58.95;97770.78;5036499;28;20095;-73
2022/01/04 08:17:08;;;;;;;37.67;12.17;;;;;;;-5.35;58.72;97792.53;5051040;28;20052;-73
2022/01/04 08:19:36;;;;;;;36.57;12.50;;;;;;;-5.34;58.63;97793.38;5043937;28;20075;-73
2022/01/04 08:22:04;;;;;;;34.20;12.73;;;;;;;-5.30;58.41;97795.38;5035607;28;20451;-73
2022/01/04 08:24:30;;;;;;;34.73;12.23;;;;;;;-5.33;58.55;97795.78;5047498;28;20442;-73
2022/01/04 08:26:56;;;;;;;35.13;13.70;;;;;;;-5.26;58.35;97795.72;5049772;28;20072;-74
2022/01/04 08:29:24;;;;;;;33.50;12.27;;;;;;;-5.24;58.69;97795.53;5030148;28;20523;-72
2022/01/04 08:31:50;;;;;;;32.63;12.48;;;;;;;-5.23;58.61;97803.28;5047199;28;20137;-73
2022/01/04 08:34:16;;;;;;;31.87;11.63;;;;;;;-5.29;58.71;97806.84;5031066;28;20095;-73
2022/01/04 08:36:44;;;;;;;35.23;12.70;;;;;;;-5.30;58.35;97799.88;5028850;28;20069;-72
2022/01/04 08:39:14;;;;;;;29.90;11.03;;;;;;;-5.21;58.24;97800.41;5041558;28;20095;-73
2022/01/04 08:41:41;;;;;;;34.37;12.23;;;;;;;-5.12;58.22;97805.22;5044026;28;20099;-74
2022/01/04 08:44:07;;;;;;;30.50;12.02;;;;;;;-5.16;58.27;97800.53;5031473;28;20057;-73
2022/01/04 08:46:35;;;;;;;32.20;11.60;;;;;;;-5.17;58.22;97799.75;5031491;28;20044;-73
2022/01/04 08:49:03;;;;;;;30.00;11.00;;;;;;;-5.15;58.26;97795.00;5021209;28;20053;-71
2022/01/04 08:51:29;;;;;;;28.88;11.85;;;;;;;-5.12;57.96;97807.09;5032171;28;20136;-72
2022/01/04 08:53:57;;;;;;;30.80;11.47;;;;;;;-5.15;57.75;97795.00;5030957;28;20053;-72
2022/01/04 08:56:25;;;;;;;29.55;11.68;;;;;;;-5.12;57.87;97797.22;5044103;28;20068;-71
2022/01/04 08:58:51;;;;;;;;;;;;;;;-5.07;57.74;97799.22;5043632;28;20053;-71
2022/01/04 09:01:17;;;;;;;31.17;10.10;;;;;;;-5.08;57.52;97792.28;5047628;28;19951;-72
2022/01/04 09:03:43;;;;;;;30.70;10.67;;;;;;;-5.15;57.66;97775.53;5039522;28;20083;-73
2022/01/04 09:06:10;;;;;;;26.97;10.30;;;;;;;-5.06;57.57;97800.84;5041151;28;20497;-70
2022/01/04 09:08:36;;;;;;;28.83;10.03;;;;;;;-5.04;57.40;97795.31;5016543;28;20127;-73
2022/01/04 09:11:04;;;;;;;22.07;9.40;;;;;;;-4.99;57.28;97801.59;5032226;28;20067;-73
2022/01/04 09:13:36;;;;;;;29.87;10.30;;;;;;;-5.01;56.92;97798.31;5043260;28;20135;-72
2022/01/04 09:18:43;;;;;;;25.67;9.87;;;;;;;-5.00;57.26;97810.63;5040108;28;20050;-72
2022/01/04 09:21:14;;;;;;;21.07;9.37;;;;;;;-5.06;57.01;97811.50;5031480;28;20107;-72
2022/01/04 09:23:42;;;;;;;25.43;9.57;;;;;;;-5.06;57.04;97818.72;5044151;28;20520;-72
2022/01/04 09:26:13;;;;;;;23.35;10.05;;;;;;;-5.01;57.32;97814.31;5071430;28;20474;-72
2022/01/04 09:28:40;;;;;;;22.93;9.60;;;;;;;-4.99;57.14;97817.59;5058447;28;20057;-72
2022/01/04 09:31:06;;;;;;;23.87;9.53;;;;;;;-4.91;56.56;97815.66;5044071;28;20564;-71
2022/01/04 09:33:36;;;;;;;22.13;9.43;;;;;;;-4.99;56.86;97825.59;5033073;28;20417;-72
2022/01/04 09:36:03;;;;;;;28.27;10.07;;;;;;;-5.02;57.12;97827.88;5049553;28;20083;-72
2022/01/04 09:38:29;;;;;;;26.52;10.00;;;;;;;-5.12;57.13;97818.53;5044547;28;20502;-72
2022/01/04 09:40:56;;;;;;;25.03;9.13;;;;;;;-5.06;57.02;97826.72;5047916;28;20049;-72
2022/01/04 09:43:25;;;;;;;21.30;9.55;;;;;;;-4.98;56.89;97826.41;5035968;28;20063;-72
2022/01/04 09:45:52;;;;;;;20.33;9.33;;;;;;;-4.92;56.68;97814.84;5034856;28;20501;-71
2022/01/04 09:48:19;;;;;;;27.00;10.80;;;;;;;-4.94;57.05;97816.91;5040628;28;20073;-72
2022/01/04 09:50:46;;;;;;;29.07;10.47;;;;;;;-4.93;57.08;97820.41;5039285;28;20151;-71
2022/01/04 09:53:19;;;;;;;34.30;12.25;;;;;;;-4.94;56.95;97826.78;5029657;28;20060;-71
2022/01/04 09:55:48;;;;;;;26.73;11.77;;;;;;;-4.97;56.88;97813.91;5016854;28;20135;-71
2022/01/04 09:58:15;;;;;;;31.20;11.30;;;;;;;-4.92;56.98;97814.03;5033540;28;20056;-71
2022/01/04 10:00:42;;;;;;;32.95;12.00;;;;;;;-4.85;56.81;97818.25;5037259;28;20572;-72
2022/01/04 10:03:12;;;;;;;29.00;11.90;;;;;;;-4.77;56.81;97825.13;5039017;28;20096;-72
2022/01/04 10:05:39;;;;;;;28.33;11.63;;;;;;;-4.68;56.32;97820.31;5030229;28;20042;-71
2022/01/04 10:08:08;;;;;;;31.92;12.68;;;;;;;-4.72;56.21;97825.28;5057255;28;20083;-72
2022/01/04 10:10:36;;;;;;;27.73;11.07;;;;;;;-4.63;56.49;97816.97;5044334;28;20080;-72
2022/01/04 10:13:04;;;;;;;;;;;;;;;-4.60;56.31;97824.53;5021090;28;20044;-72
2022/01/04 10:15:40;;;;;;;43.17;15.97;;;;;;;-4.64;56.06;97826.81;5040415;28;19924;-72
2022/01/04 10:18:21;;;;;;;38.13;16.27;;;;;;;-4.61;56.09;97813.03;5048154;28;20054;-72
2022/01/04 10:20:53;;;;;;;43.10;15.80;;;;;;;-4.59;56.11;97818.97;5040153;28;20492;-72
2022/01/04 10:23:22;;;;;;;40.27;16.00;;;;;;;-4.45;55.68;97821.44;5033366;28;20444;-72
2022/01/04 10:25:49;;;;;;;37.00;15.33;;;;;;;-4.52;55.33;97820.72;5059065;28;20045;-72
2022/01/04 10:28:28;;;;;;;44.20;17.17;;;;;;;-4.62;56.06;97819.41;5045411;28;20136;-72
2022/01/04 10:30:59;;;;;;;43.90;16.83;;;;;;;-4.66;56.21;97826.22;5033328;28;20095;-71
2022/01/04 10:33:28;;;;;;;40.00;16.30;;;;;;;-4.73;56.58;97826.31;5045788;28;20040;-72
2022/01/04 10:35:56;;;;;;;38.43;14.70;;;;;;;-4.72;56.77;97824.47;5045658;28;20614;-72
2022/01/04 10:38:24;;;;;;;37.00;14.32;;;;;;;-4.75;56.84;97833.72;5033494;28;20498;-71
2022/01/04 10:40:59;;;;;;;43.83;15.63;;;;;;;-4.58;56.35;97827.78;5033154;28;20057;-70
2022/01/04 10:43:28;;;;;;;38.97;13.97;;;;;;;-4.58;56.19;97831.28;5034054;28;20095;-72
2022/01/04 10:45:59;;;;;;;41.13;15.20;;;;;;;-4.51;56.12;97825.03;5019142;28;20430;-71
2022/01/04 10:48:29;;;;;;;44.43;16.03;;;;;;;-4.53;56.39;97829.78;5034207;28;20057;-71
2022/01/04 10:50:57;;;;;;;35.33;15.77;;;;;;;-4.51;56.23;97833.03;5034503;28;20049;-71
2022/01/04 10:53:27;;;;;;;36.93;14.50;;;;;;;-4.45;55.96;97830.28;5048564;28;20048;-73
2022/01/04 10:56:00;;;;;;;38.07;15.20;;;;;;;-4.37;55.80;97825.66;5016825;28;20127;-73
2022/01/04 10:58:30;;;;;;;43.07;15.23;;;;;;;-4.33;55.58;97819.66;5034207;28;20124;-71
2022/01/04 11:00:58;;;;;;;39.73;14.93;;;;;;;-4.34;55.33;97819.88;5016377;28;20056;-72
2022/01/04 11:03:29;;;;;;;36.37;14.70;;;;;;;-4.39;55.55;97825.06;5046864;28;20398;-72
2022/01/04 11:06:01;;;;;;;44.37;15.07;;;;;;;-4.43;55.78;97822.88;5054092;28;20045;-72
2022/01/04 11:08:28;;;;;;;45.07;15.73;;;;;;;-4.41;55.63;97822.66;5047162;28;20133;-72
2022/01/04 11:10:55;;;;;;;39.90;15.00;;;;;;;-4.48;55.97;97836.06;5052758;28;20067;-72
2022/01/04 11:13:23;;;;;;;43.55;14.77;;;;;;;-4.50;55.96;97830.16;5054265;28;20060;-72
2022/01/04 11:15:51;;;;;;;38.65;14.05;;;;;;;-4.46;55.74;97820.66;5052475;28;20403;-72
2022/01/04 11:18:17;;;;;;;40.15;13.40;;;;;;;-4.45;56.06;97832.94;5047530;28;20045;-72
2022/01/04 11:20:49;;;;;;;33.80;13.07;;;;;;;-4.48;56.11;97828.06;5031678;28;20050;-72
2022/01/04 11:23:16;;;;;;;42.47;14.60;;;;;;;-4.46;55.88;97825.97;5034008;28;20365;-72
2022/01/04 11:25:45;;;;;;;41.40;13.90;;;;;;;-4.46;56.06;97828.66;5035763;28;20503;-72
2022/01/04 11:28:14;;;;;;;39.53;14.03;;;;;;;-4.47;55.97;97831.53;5027811;28;20127;-72
2022/01/04 11:30:54;;;;;;;36.83;15.13;;;;;;;-4.45;55.75;97827.59;5051609;28;20120;-72